Time;durP1;ratioP1;P1;durP2;ratioP2;P2;SDS_P1;SDS_P2;PMS_P1;PMS_P2;Temp;Humidity;BMP_temperature;BMP_pressure;BME280_temperature;BME280_humidity;BME280_pressure;Samples;Min_cycle;Max_cycle;Signal;HPM_P1;HPM_P2
2023/02/02 00:01:59;;;;;;;13.55;2.17;;;;;;;;;;5113013;28;20210;-59
2023/02/02 00:04:28;;;;;;;6.93;1.60;;;;;;;;;;5112845;28;20191;-60
2023/02/02 00:06:56;;;;;;;15.38;2.90;;;;;;;;;;5112887;28;20558;-59
2023/02/02 00:09:23;;;;;;;10.65;3.50;;;;;;;;;;5112734;28;20198;-59
2023/02/02 00:11:50;;;;;;;12.57;2.90;;;;;;;;;;5113064;28;20222;-58
2023/02/02 00:14:17;;;;;;;4.65;1.67;;;;;;;;;;5112910;28;20197;-59
2023/02/02 00:16:46;;;;;;;5.93;1.80;;;;;;;;;;5112749;28;20223;-60
2023/02/02 00:19:14;;;;;;;10.73;2.90;;;;;;;;;;5112740;28;20186;-59
2023/02/02 00:21:43;;;;;;;16.42;2.88;;;;;;;;;;5112710;28;20218;-59
2023/02/02 00:24:10;;;;;;;10.68;2.75;;;;;;;;;;5112626;28;20198;-59
2023/02/02 00:26:38;;;;;;;7.68;2.03;;;;;;;;;;5116506;28;20195;-59
2023/02/02 00:29:06;;;;;;;4.97;1.92;;;;;;;;;;5116536;28;20201;-59
2023/02/02 00:31:33;;;;;;;11.38;3.20;;;;;;;;;;5116557;28;20198;-59
2023/02/02 00:33:59;;;;;;;11.45;2.10;;;;;;;;;;5116539;28;20287;-59
2023/02/02 00:36:26;;;;;;;14.18;3.22;;;;;;;;;;5116135;28;20220;-59
2023/02/02 00:38:55;;;;;;;16.00;3.10;;;;;;;;;;5116175;28;20191;-59
2023/02/02 00:41:21;;;;;;;15.80;3.00;;;;;;;;;;5116345;28;20194;-59
2023/02/02 00:45:14;;;;;;;8.80;2.53;;;;;;;;;;5116071;28;20681;-59
2023/02/02 00:46:38;;;;;;;15.68;3.47;;;;;;;;;;5116155;28;20294;-59
2023/02/02 00:49:05;;;;;;;9.90;2.75;;;;;;;;;;5115916;28;20187;-60
2023/02/02 00:51:32;;;;;;;15.80;2.83;;;;;;;;;;5115949;28;20191;-59
2023/02/02 00:54:00;;;;;;;7.20;1.93;;;;;;;;;;5116007;28;20202;-60
2023/02/02 00:56:27;;;;;;;19.50;2.30;;;;;;;;;;5115927;28;20487;-60
2023/02/02 00:58:54;;;;;;;13.38;2.85;;;;;;;;;;5115943;28;20193;-59
2023/02/02 01:01:22;;;;;;;10.52;2.30;;;;;;;;;;5115751;28;20191;-58
2023/02/02 01:03:49;;;;;;;15.45;3.05;;;;;;;;;;5115676;28;20213;-59
2023/02/02 01:06:16;;;;;;;7.80;2.00;;;;;;;;;;5115890;28;20193;-59
2023/02/02 01:08:43;;;;;;;8.77;2.40;;;;;;;;;;5115828;28;20196;-59
2023/02/02 01:11:11;;;;;;;16.88;2.78;;;;;;;;;;5115711;28;20449;-59
2023/02/02 01:13:38;;;;;;;11.02;3.83;;;;;;;;;;5115648;28;20194;-59
2023/02/02 01:16:06;;;;;;;9.95;2.42;;;;;;;;;;5115369;28;20221;-60
2023/02/02 01:18:33;;;;;;;6.80;2.08;;;;;;;;;;5115642;28;20190;-60
2023/02/02 01:21:00;;;;;;;12.30;2.25;;;;;;;;;;5115577;28;20240;-59
2023/02/02 01:23:27;;;;;;;7.70;2.03;;;;;;;;;;5115457;28;20191;-60
2023/02/02 01:25:54;;;;;;;10.80;2.85;;;;;;;;;;5115344;28;20453;-60
2023/02/02 01:28:23;;;;;;;8.63;2.53;;;;;;;;;;5115318;28;20745;-60
2023/02/02 01:30:50;;;;;;;9.70;1.80;;;;;;;;;;5115588;28;20193;-60
2023/02/02 01:33:17;;;;;;;8.95;1.92;;;;;;;;;;5115349;28;20642;-60
2023/02/02 01:35:48;;;;;;;7.65;2.60;;;;;;;;;;5115001;28;20240;-60
2023/02/02 01:38:14;;;;;;;8.20;2.53;;;;;;;;;;5114596;28;20575;-60
2023/02/02 01:40:46;;;;;;;6.63;1.75;;;;;;;;;;5115047;28;20190;-60
2023/02/02 01:43:21;;;;;;;9.88;2.53;;;;;;;;;;5114947;28;20191;-60
2023/02/02 01:45:50;;;;;;;11.63;2.90;;;;;;;;;;5115014;28;20712;-59
2023/02/02 01:48:17;;;;;;;12.32;2.90;;;;;;;;;;5115000;28;20281;-60
2023/02/02 01:50:44;;;;;;;6.97;3.25;;;;;;;;;;5114970;28;20212;-60
2023/02/02 01:53:11;;;;;;;15.40;3.38;;;;;;;;;;5114803;28;20191;-59
2023/02/02 01:55:41;;;;;;;12.48;2.58;;;;;;;;;;5114884;28;20225;-59
2023/02/02 01:58:11;;;;;;;17.08;3.58;;;;;;;;;;5114857;28;20190;-60
2023/02/02 02:00:39;;;;;;;17.38;3.40;;;;;;;;;;5114726;28;20205;-59
2023/02/02 02:03:10;;;;;;;9.27;2.40;;;;;;;;;;5114660;28;20188;-59
2023/02/02 02:05:38;;;;;;;5.47;1.90;;;;;;;;;;5114582;28;20198;-60
2023/02/02 02:08:08;;;;;;;8.80;2.28;;;;;;;;;;5114447;28;20193;-60
2023/02/02 02:10:35;;;;;;;10.85;2.58;;;;;;;;;;5114828;28;20212;-59
2023/02/02 02:13:02;;;;;;;12.50;2.58;;;;;;;;;;5114583;28;20187;-59
2023/02/02 02:18:23;;;;;;;7.85;2.30;;;;;;;;;;5114353;28;20197;-59
2023/02/02 02:27:10;;;;;;;11.57;2.30;;;;;;;;;;5114049;28;20589;-60
2023/02/02 02:29:47;;;;;;;4.60;2.20;;;;;;;;;;5114428;28;20199;-60
2023/02/02 02:32:21;;;;;;;9.07;2.60;;;;;;;;;;5114155;28;20186;-59
2023/02/02 02:34:53;;;;;;;8.70;2.55;;;;;;;;;;5113978;28;20281;-59
2023/02/02 02:37:24;;;;;;;8.40;2.67;;;;;;;;;;5113870;28;20250;-59
2023/02/02 02:39:54;;;;;;;10.95;2.22;;;;;;;;;;5114053;28;20854;-59
2023/02/02 02:42:23;;;;;;;11.00;2.78;;;;;;;;;;5114195;28;20196;-59
2023/02/02 02:44:51;;;;;;;5.68;1.70;;;;;;;;;;5113804;28;20220;-59
2023/02/02 02:47:19;;;;;;;8.00;1.70;;;;;;;;;;5113676;28;20278;-60
2023/02/02 02:49:48;;;;;;;10.23;2.17;;;;;;;;;;5113617;28;20191;-60
2023/02/02 02:52:15;;;;;;;10.30;3.00;;;;;;;;;;5113911;28;20198;-60
2023/02/02 02:54:45;;;;;;;10.00;2.70;;;;;;;;;;5113881;28;20187;-59
2023/02/02 02:57:35;;;;;;;12.82;2.03;;;;;;;;;;5113641;28;20219;-60
2023/02/02 03:00:08;;;;;;;10.45;2.65;;;;;;;;;;5113593;28;20197;-59
2023/02/02 03:02:41;;;;;;;6.22;2.47;;;;;;;;;;5113806;28;20186;-59
2023/02/02 03:05:12;;;;;;;10.38;3.15;;;;;;;;;;5113723;28;20549;-60
2023/02/02 03:07:42;;;;;;;7.70;2.50;;;;;;;;;;5113552;28;20570;-59
2023/02/02 03:10:11;;;;;;;6.78;2.05;;;;;;;;;;5113466;28;20252;-59
2023/02/02 03:12:44;;;;;;;10.43;2.10;;;;;;;;;;5113331;28;20190;-59
2023/02/02 03:15:11;;;;;;;6.60;1.93;;;;;;;;;;5113637;28;20524;-59
2023/02/02 03:17:39;;;;;;;11.83;2.63;;;;;;;;;;5113489;28;20490;-59
2023/02/02 03:20:07;;;;;;;5.20;1.80;;;;;;;;;;5113431;28;20850;-59
2023/02/02 03:22:34;;;;;;;7.30;2.35;;;;;;;;;;5113346;28;20277;-59
2023/02/02 03:25:01;;;;;;;9.15;2.30;;;;;;;;;;5113212;28;20196;-59
2023/02/02 03:27:28;;;;;;;11.50;2.30;;;;;;;;;;5113125;28;20191;-59
2023/02/02 03:29:55;;;;;;;7.50;1.80;;;;;;;;;;5113296;28;20478;-59
2023/02/02 03:32:22;;;;;;;24.35;2.67;;;;;;;;;;5113348;28;20191;-59
2023/02/02 03:34:50;;;;;;;9.48;2.30;;;;;;;;;;5113239;28;20203;-59
2023/02/02 03:37:17;;;;;;;6.40;2.10;;;;;;;;;;5113081;28;20250;-59
2023/02/02 03:39:46;;;;;;;8.07;2.38;;;;;;;;;;5113126;28;20806;-59
2023/02/02 03:42:13;;;;;;;7.50;1.75;;;;;;;;;;5113293;28;20201;-60
2023/02/02 03:44:40;;;;;;;7.13;1.75;;;;;;;;;;5113057;28;20229;-59
2023/02/02 03:47:07;;;;;;;7.13;1.55;;;;;;;;;;5113121;28;20199;-59
2023/02/02 03:49:34;;;;;;;5.57;1.50;;;;;;;;;;5113189;28;20187;-59
2023/02/02 03:52:03;;;;;;;4.70;1.70;;;;;;;;;;5112994;28;20448;-60
2023/02/02 03:54:30;;;;;;;6.57;1.40;;;;;;;;;;5112849;28;20662;-59
2023/02/02 03:56:57;;;;;;;6.30;1.48;;;;;;;;;;5113047;28;20572;-59
2023/02/02 03:59:24;;;;;;;5.68;1.95;;;;;;;;;;5113277;28;20188;-59
2023/02/02 04:01:51;;;;;;;5.63;1.80;;;;;;;;;;5117093;28;20193;-60
2023/02/02 04:04:18;;;;;;;7.97;1.63;;;;;;;;;;5116801;28;20692;-59
2023/02/02 04:06:45;;;;;;;12.07;2.65;;;;;;;;;;5117391;28;20448;-59
2023/02/02 04:09:13;;;;;;;11.00;4.10;;;;;;;;;;5116778;28;20187;-60
2023/02/02 04:11:40;;;;;;;17.88;7.80;;;;;;;;;;5116848;28;20201;-59
2023/02/02 04:14:07;;;;;;;10.43;2.88;;;;;;;;;;5116823;28;20627;-59
2023/02/02 04:16:36;;;;;;;7.18;1.98;;;;;;;;;;5116639;28;20208;-59
2023/02/02 04:19:03;;;;;;;5.90;1.15;;;;;;;;;;5116688;28;20608;-59
2023/02/02 04:21:30;;;;;;;8.40;2.53;;;;;;;;;;5116462;28;20201;-60
2023/02/02 04:23:57;;;;;;;6.38;1.50;;;;;;;;;;5116699;28;20908;-59
2023/02/02 04:26:25;;;;;;;9.70;2.07;;;;;;;;;;5116632;28;20193;-60
2023/02/02 04:28:52;;;;;;;8.40;1.90;;;;;;;;;;5116440;28;20448;-59
2023/02/02 04:31:19;;;;;;;26.60;11.10;;;;;;;;;;5116259;28;20966;-59
2023/02/02 04:33:46;;;;;;;12.27;6.85;;;;;;;;;;5116406;28;20448;-59
2023/02/02 04:36:13;;;;;;;8.43;3.83;;;;;;;;;;5116156;28;20308;-59
2023/02/02 04:38:42;;;;;;;8.43;1.60;;;;;;;;;;5116180;28;20676;-59
2023/02/02 04:41:09;;;;;;;6.55;1.48;;;;;;;;;;5116555;28;20588;-59
2023/02/02 04:43:38;;;;;;;10.10;2.55;;;;;;;;;;5116254;28;20192;-59
2023/02/02 04:46:05;;;;;;;4.13;1.50;;;;;;;;;;5115842;28;20692;-59
2023/02/02 04:48:32;;;;;;;5.93;1.45;;;;;;;;;;5115997;28;20219;-59
2023/02/02 04:51:00;;;;;;;10.57;3.07;;;;;;;;;;5116209;28;20665;-59
2023/02/02 04:53:27;;;;;;;8.52;2.65;;;;;;;;;;5116203;28;20452;-59
2023/02/02 04:55:53;;;;;;;6.13;1.80;;;;;;;;;;5116075;28;20193;-59
2023/02/02 04:58:20;;;;;;;5.07;1.95;;;;;;;;;;5115853;28;20515;-59
2023/02/02 05:00:48;;;;;;;6.13;2.30;;;;;;;;;;5115833;28;20216;-59
2023/02/02 05:03:15;;;;;;;5.85;1.60;;;;;;;;;;5115713;28;20198;-59
2023/02/02 05:05:42;;;;;;;8.95;2.47;;;;;;;;;;5115883;28;20191;-59
2023/02/02 05:08:10;;;;;;;8.80;1.60;;;;;;;;;;5115577;28;20713;-59
2023/02/02 05:10:39;;;;;;;9.20;2.23;;;;;;;;;;5115234;28;20268;-60
2023/02/02 05:13:06;;;;;;;9.97;2.30;;;;;;;;;;5114839;28;20454;-59
2023/02/02 05:15:33;;;;;;;4.93;1.90;;;;;;;;;;5115400;28;20539;-60
2023/02/02 05:18:02;;;;;;;3.67;1.50;;;;;;;;;;5115582;28;20484;-59
2023/02/02 05:20:28;;;;;;;8.70;2.00;;;;;;;;;;5115593;28;20282;-59
2023/02/02 05:22:55;;;;;;;7.55;2.00;;;;;;;;;;5115543;28;20813;-59
2023/02/02 05:25:22;;;;;;;7.60;2.00;;;;;;;;;;5115399;28;20215;-59
2023/02/02 05:27:49;;;;;;;4.25;1.58;;;;;;;;;;5115364;28;20270;-59
2023/02/02 05:30:17;;;;;;;6.43;1.90;;;;;;;;;;5115198;28;20192;-60
2023/02/02 05:32:43;;;;;;;9.07;2.23;;;;;;;;;;5115084;28;20478;-59
2023/02/02 05:35:12;;;;;;;5.25;1.58;;;;;;;;;;5115295;28;20451;-59
2023/02/02 05:37:39;;;;;;;9.40;1.90;;;;;;;;;;5114908;28;20713;-59
2023/02/02 05:40:06;;;;;;;4.90;2.15;;;;;;;;;;5115300;28;20453;-59
2023/02/02 05:42:33;;;;;;;9.38;1.58;;;;;;;;;;5115052;28;20202;-58
2023/02/02 05:45:00;;;;;;;10.00;3.63;;;;;;;;;;5114559;28;20596;-58
2023/02/02 05:47:26;;;;;;;8.02;2.05;;;;;;;;;;5115024;28;20195;-59
2023/02/02 05:49:53;;;;;;;10.50;1.73;;;;;;;;;;5114963;28;20205;-59
2023/02/02 05:52:22;;;;;;;6.60;1.60;;;;;;;;;;5114820;28;20259;-59
2023/02/02 05:54:49;;;;;;;6.43;1.70;;;;;;;;;;5114674;28;20661;-58
2023/02/02 05:57:16;;;;;;;10.40;2.00;;;;;;;;;;5114483;28;20242;-58
2023/02/02 05:59:43;;;;;;;5.60;1.63;;;;;;;;;;5114766;28;20448;-58
2023/02/02 06:02:10;;;;;;;9.93;1.77;;;;;;;;;;5114649;28;20852;-58
2023/02/02 06:04:37;;;;;;;3.63;1.52;;;;;;;;;;5114498;28;20478;-59
2023/02/02 06:07:04;;;;;;;4.88;1.65;;;;;;;;;;5114608;28;20242;-58
2023/02/02 06:09:32;;;;;;;7.70;2.28;;;;;;;;;;5114454;28;20198;-58
2023/02/02 06:11:59;;;;;;;8.87;1.80;;;;;;;;;;5114253;28;20199;-60
2023/02/02 06:14:27;;;;;;;7.83;1.60;;;;;;;;;;5114294;28;20447;-58
2023/02/02 06:16:54;;;;;;;11.13;1.52;;;;;;;;;;5114343;28;20459;-58
2023/02/02 06:19:21;;;;;;;8.40;1.80;;;;;;;;;;5114221;28;20573;-58
2023/02/02 06:21:47;;;;;;;4.82;1.40;;;;;;;;;;5114234;28;20191;-58
2023/02/02 06:24:15;;;;;;;9.57;2.50;;;;;;;;;;5113737;28;20193;-58
2023/02/02 06:26:43;;;;;;;5.70;2.00;;;;;;;;;;5114034;28;20186;-58
2023/02/02 06:29:11;;;;;;;7.20;1.80;;;;;;;;;;5114239;28;20341;-59
2023/02/02 06:31:38;;;;;;;11.30;1.83;;;;;;;;;;5113935;28;20188;-58
2023/02/02 06:34:05;;;;;;;8.43;2.28;;;;;;;;;;5114017;28;20448;-58
2023/02/02 06:36:32;;;;;;;8.27;3.10;;;;;;;;;;5113999;28;20188;-58
2023/02/02 06:39:01;;;;;;;7.28;1.90;;;;;;;;;;5113690;28;20223;-59
2023/02/02 06:41:27;;;;;;;8.25;2.58;;;;;;;;;;5113997;28;20191;-59
2023/02/02 06:43:56;;;;;;;6.30;1.48;;;;;;;;;;5113882;28;20190;-59
2023/02/02 06:46:23;;;;;;;9.13;2.40;;;;;;;;;;5113591;28;20232;-59
2023/02/02 06:48:51;;;;;;;2.92;1.50;;;;;;;;;;5113704;28;20238;-59
2023/02/02 06:51:18;;;;;;;6.00;1.67;;;;;;;;;;5113655;28;20190;-59
2023/02/02 06:53:47;;;;;;;10.75;2.17;;;;;;;;;;5113532;28;20278;-59
2023/02/02 06:56:14;;;;;;;10.02;2.15;;;;;;;;;;5113679;28;20187;-59
2023/02/02 06:58:41;;;;;;;10.20;1.88;;;;;;;;;;5113532;28;20219;-59
2023/02/02 07:01:11;;;;;;;6.07;1.67;;;;;;;;;;5113484;28;20281;-59
2023/02/02 07:03:38;;;;;;;7.50;1.77;;;;;;;;;;5113319;28;20194;-59
2023/02/02 07:06:12;;;;;;;7.55;1.77;;;;;;;;;;5113201;28;20449;-59
2023/02/02 07:08:39;;;;;;;10.75;2.00;;;;;;;;;;5113478;28;20192;-59
2023/02/02 07:11:06;;;;;;;4.13;1.83;;;;;;;;;;5113311;28;20190;-59
2023/02/02 07:13:33;;;;;;;8.45;2.20;;;;;;;;;;5113289;28;20281;-60
2023/02/02 07:16:00;;;;;;;4.53;1.42;;;;;;;;;;5113297;28;20191;-59
2023/02/02 07:18:29;;;;;;;4.87;1.50;;;;;;;;;;5113130;28;20305;-59
2023/02/02 07:20:58;;;;;;;5.77;1.70;;;;;;;;;;5113410;28;20510;-59
2023/02/02 07:23:25;;;;;;;8.95;1.80;;;;;;;;;;5113320;28;20456;-59
2023/02/02 07:26:00;;;;;;;4.88;1.85;;;;;;;;;;5113169;28;20231;-59
2023/02/02 07:28:27;;;;;;;8.70;2.38;;;;;;;;;;5113145;28;20201;-59
2023/02/02 07:30:54;;;;;;;9.77;2.33;;;;;;;;;;5112922;28;20240;-59
2023/02/02 07:33:21;;;;;;;10.23;1.87;;;;;;;;;;5112908;28;20444;-59
2023/02/02 07:35:51;;;;;;;8.68;1.50;;;;;;;;;;5115868;28;20455;-60
2023/02/02 07:38:17;;;;;;;3.90;1.50;;;;;;;;;;5117287;28;20317;-59
2023/02/02 07:40:45;;;;;;;6.27;1.40;;;;;;;;;;5117265;28;20454;-59
2023/02/02 07:43:12;;;;;;;9.13;1.75;;;;;;;;;;5117075;28;20477;-59
2023/02/02 07:45:39;;;;;;;8.73;1.60;;;;;;;;;;5116903;28;20218;-60
2023/02/02 07:48:06;;;;;;;8.00;1.52;;;;;;;;;;5117260;28;20487;-59
2023/02/02 07:50:33;;;;;;;6.10;1.50;;;;;;;;;;5117044;28;20254;-59
2023/02/02 07:53:01;;;;;;;6.63;1.93;;;;;;;;;;5117040;28;20459;-59
2023/02/02 07:55:28;;;;;;;5.00;1.60;;;;;;;;;;5116975;28;20450;-59
2023/02/02 07:57:57;;;;;;;6.13;1.52;;;;;;;;;;5116728;28;20218;-59
2023/02/02 08:00:24;;;;;;;2.63;1.50;;;;;;;;;;5116690;28;20195;-59
2023/02/02 08:02:52;;;;;;;8.77;1.67;;;;;;;;;;5116947;28;20251;-59
2023/02/02 08:05:19;;;;;;;7.03;2.07;;;;;;;;;;5116861;28;20525;-59
2023/02/02 08:07:47;;;;;;;12.00;2.10;;;;;;;;;;5116910;28;20954;-59
2023/02/02 08:10:15;;;;;;;6.70;1.93;;;;;;;;;;5117119;28;20448;-59
2023/02/02 08:12:42;;;;;;;11.82;2.20;;;;;;;;;;5116684;28;20455;-59
2023/02/02 08:15:09;;;;;;;25.15;15.50;;;;;;;;;;5116852;28;20275;-59
2023/02/02 08:17:37;;;;;;;11.52;2.53;;;;;;;;;;5116700;28;20191;-60
2023/02/02 08:20:04;;;;;;;6.00;1.53;;;;;;;;;;5116655;28;20191;-59
2023/02/02 08:22:31;;;;;;;16.52;2.03;;;;;;;;;;5116478;28;20539;-59
2023/02/02 08:24:59;;;;;;;9.60;1.90;;;;;;;;;;5116471;28;20553;-59
2023/02/02 08:27:27;;;;;;;4.50;1.93;;;;;;;;;;5116194;28;20454;-59
2023/02/02 08:29:54;;;;;;;6.40;2.73;;;;;;;;;;5116730;28;20449;-59
2023/02/02 08:32:21;;;;;;;9.15;3.40;;;;;;;;;;5116472;28;20882;-59
2023/02/02 08:34:50;;;;;;;7.60;3.90;;;;;;;;;;5121682;27;20185;-59
2023/02/02 08:37:17;;;;;;;16.97;3.40;;;;;;;;;;5125915;27;20447;-59
2023/02/02 08:39:44;;;;;;;8.40;3.07;;;;;;;;;;5126373;27;20512;-59
2023/02/02 08:42:12;;;;;;;8.57;3.80;;;;;;;;;;5124734;27;20773;-59
2023/02/02 08:44:40;;;;;;;6.83;3.40;;;;;;;;;;5125162;27;20496;-59
2023/02/02 08:47:08;;;;;;;9.60;2.33;;;;;;;;;;5121858;27;20453;-60
2023/02/02 08:49:35;;;;;;;10.88;2.08;;;;;;;;;;5124490;27;20242;-60
2023/02/02 08:52:02;;;;;;;10.80;2.27;;;;;;;;;;5124696;27;20313;-59
2023/02/02 08:54:29;;;;;;;7.78;2.22;;;;;;;;;;5125755;27;20447;-59
2023/02/02 08:56:57;;;;;;;8.20;2.47;;;;;;;;;;5123478;27;20627;-59
2023/02/02 08:59:24;;;;;;;10.83;1.90;;;;;;;;;;5126279;27;21025;-59
2023/02/02 09:01:53;;;;;;;8.03;2.23;;;;;;;;;;5120780;27;20532;-58
2023/02/02 09:04:20;;;;;;;10.20;2.20;;;;;;;;;;5128908;27;20445;-58
2023/02/02 09:06:47;;;;;;;10.10;2.10;;;;;;;;;;5123391;27;20446;-59
2023/02/02 09:09:14;;;;;;;8.30;2.93;;;;;;;;;;5130733;27;20486;-59
2023/02/02 09:11:42;;;;;;;6.17;2.10;;;;;;;;;;5136147;27;20487;-58
2023/02/02 09:14:10;;;;;;;5.93;2.40;;;;;;;;;;5136170;27;20451;-58
2023/02/02 09:16:37;;;;;;;8.20;3.00;;;;;;;;;;5135919;27;20939;-59
2023/02/02 09:19:06;;;;;;;5.13;2.70;;;;;;;;;;5135801;27;20480;-60
2023/02/02 09:21:35;;;;;;;11.27;2.40;;;;;;;;;;5135779;27;20483;-59
2023/02/02 09:24:02;;;;;;;8.57;2.25;;;;;;;;;;5135785;27;20451;-59
2023/02/02 09:26:29;;;;;;;3.73;1.50;;;;;;;;;;5135954;27;20190;-59
2023/02/02 09:28:57;;;;;;;7.43;1.87;;;;;;;;;;5135692;27;20539;-60
2023/02/02 09:31:25;;;;;;;9.20;1.73;;;;;;;;;;5135688;27;20546;-59
2023/02/02 09:33:52;;;;;;;5.30;1.60;;;;;;;;;;5135440;27;20448;-59
2023/02/02 09:36:21;;;;;;;9.07;1.97;;;;;;;;;;5135353;27;20504;-59
2023/02/02 09:38:49;;;;;;;4.87;1.63;;;;;;;;;;5135554;27;20566;-59
2023/02/02 09:41:25;;;;;;;12.90;2.40;;;;;;;;;;5135650;27;20448;-59
2023/02/02 09:43:55;;;;;;;7.23;3.33;;;;;;;;;;5135467;27;20546;-59
2023/02/02 09:46:30;;;;;;;7.30;2.00;;;;;;;;;;5135295;27;20476;-62
2023/02/02 09:49:01;;;;;;;11.13;2.30;;;;;;;;;;5135425;27;20454;-62
2023/02/02 09:51:31;;;;;;;6.40;2.17;;;;;;;;;;5135468;27;20703;-62
2023/02/02 09:54:01;;;;;;;6.47;2.13;;;;;;;;;;5135250;27;20540;-62
2023/02/02 09:56:32;;;;;;;4.57;2.40;;;;;;;;;;5135106;27;20483;-62
2023/02/02 09:59:01;;;;;;;13.30;2.80;;;;;;;;;;5134362;27;20804;-62
2023/02/02 10:01:31;;;;;;;6.53;1.90;;;;;;;;;;5135150;27;20530;-62
2023/02/02 10:04:01;;;;;;;5.73;1.50;;;;;;;;;;5135200;27;20448;-62
2023/02/02 10:06:34;;;;;;;6.00;1.90;;;;;;;;;;5134996;27;20565;-62
2023/02/02 10:09:03;;;;;;;8.73;1.70;;;;;;;;;;5134966;27;20469;-62
2023/02/02 10:11:32;;;;;;;11.07;2.03;;;;;;;;;;5134614;27;20445;-62
2023/02/02 10:14:01;;;;;;;8.10;2.30;;;;;;;;;;5134980;27;20444;-62
2023/02/02 10:16:28;;;;;;;7.13;1.60;;;;;;;;;;5134479;27;20947;-62
2023/02/02 10:18:58;;;;;;;7.93;1.93;;;;;;;;;;5134692;27;20579;-62
2023/02/02 10:21:28;;;;;;;6.93;1.50;;;;;;;;;;5134730;27;20492;-62
2023/02/02 10:23:57;;;;;;;6.43;1.50;;;;;;;;;;5134632;27;20452;-62
2023/02/02 10:26:26;;;;;;;3.13;1.30;;;;;;;;;;5134834;27;20449;-62
2023/02/02 10:29:05;;;;;;;8.40;1.73;;;;;;;;;;5134695;27;20531;-62
2023/02/02 10:31:39;;;;;;;7.20;2.23;;;;;;;;;;5134580;27;20455;-62
2023/02/02 10:34:09;;;;;;;4.53;1.77;;;;;;;;;;5134569;27;20450;-62
2023/02/02 10:36:44;;;;;;;5.43;1.07;;;;;;;;;;5134361;27;20454;-62
2023/02/02 10:39:19;;;;;;;7.73;1.87;;;;;;;;;;5134205;27;20487;-62
2023/02/02 10:41:50;;;;;;;4.10;1.33;;;;;;;;;;5131143;27;20540;-63
2023/02/02 10:44:21;;;;;;;4.60;1.27;;;;;;;;;;5123605;27;20539;-63
2023/02/02 10:46:49;;;;;;;13.27;2.80;;;;;;;;;;5124444;27;20450;-63
2023/02/02 10:49:20;;;;;;;7.17;1.93;;;;;;;;;;5116668;27;20552;-62
2023/02/02 10:51:50;;;;;;;3.10;1.13;;;;;;;;;;5113813;28;20890;-63
2023/02/02 10:54:26;;;;;;;6.47;1.30;;;;;;;;;;5113693;28;20450;-62
2023/02/02 10:56:56;;;;;;;5.07;1.17;;;;;;;;;;5113573;28;20452;-62
2023/02/02 10:59:25;;;;;;;6.03;1.53;;;;;;;;;;5113350;28;20485;-62
2023/02/02 11:01:52;;;;;;;10.00;2.30;;;;;;;;;;5113611;28;20841;-61
2023/02/02 11:07:05;;;;;;;7.63;1.30;;;;;;;;;;5113394;28;20503;-62
2023/02/02 11:09:36;;;;;;;7.17;1.60;;;;;;;;;;5113384;28;20449;-60
2023/02/02 11:12:05;;;;;;;5.13;1.50;;;;;;;;;;5113196;28;20453;-61
2023/02/02 11:14:37;;;;;;;4.33;1.20;;;;;;;;;;5113446;28;20442;-61
2023/02/02 11:17:05;;;;;;;3.10;1.20;;;;;;;;;;5113288;28;20809;-61
2023/02/02 11:19:33;;;;;;;3.40;1.87;;;;;;;;;;5113194;28;20797;-61
2023/02/02 11:22:01;;;;;;;4.60;1.37;;;;;;;;;;5113181;28;20485;-61
2023/02/02 11:24:29;;;;;;;5.83;1.80;;;;;;;;;;5112937;28;20454;-60
2023/02/02 11:27:00;;;;;;;3.20;1.00;;;;;;;;;;5113314;28;20808;-60
2023/02/02 11:29:28;;;;;;;6.40;2.73;;;;;;;;;;5113286;28;20537;-61
2023/02/02 11:31:55;;;;;;;3.43;1.10;;;;;;;;;;5113111;28;20453;-61
2023/02/02 11:34:22;;;;;;;3.40;1.23;;;;;;;;;;5113072;28;20945;-61
2023/02/02 11:37:00;;;;;;;5.43;1.40;;;;;;;;;;5112915;28;20474;-61
2023/02/02 11:39:27;;;;;;;8.33;1.53;;;;;;;;;;5121404;28;20476;-59
2023/02/02 11:42:00;;;;;;;3.30;1.83;;;;;;;;;;5123135;28;20445;-60
2023/02/02 11:44:28;;;;;;;4.87;1.17;;;;;;;;;;5112392;28;20449;-60
2023/02/02 11:46:56;;;;;;;7.43;2.00;;;;;;;;;;5112310;28;20446;-60
2023/02/02 11:49:23;;;;;;;6.53;1.40;;;;;;;;;;5112210;28;20449;-61
2023/02/02 11:51:56;;;;;;;4.03;1.20;;;;;;;;;;5112556;28;20566;-60
2023/02/02 11:54:27;;;;;;;4.63;1.33;;;;;;;;;;5113068;28;20540;-61
2023/02/02 11:56:55;;;;;;;4.80;1.40;;;;;;;;;;5112915;28;20453;-60
2023/02/02 11:59:31;;;;;;;4.70;1.30;;;;;;;;;;5112772;28;20759;-60
2023/02/02 12:02:20;;;;;;;10.47;1.27;;;;;;;;;;5112773;28;20517;-61
2023/02/02 12:04:48;;;;;;;3.63;1.20;;;;;;;;;;5113065;28;20876;-60
2023/02/02 12:07:18;;;;;;;5.63;1.10;;;;;;;;;;5112846;28;20452;-60
2023/02/02 12:09:46;;;;;;;6.80;1.60;;;;;;;;;;5112760;28;20829;-61
2023/02/02 12:12:18;;;;;;;8.80;2.20;;;;;;;;;;5112495;28;20878;-60
2023/02/02 12:14:52;;;;;;;8.13;1.77;;;;;;;;;;5112793;28;20474;-60
2023/02/02 12:17:28;;;;;;;3.47;1.10;;;;;;;;;;5112706;28;20451;-61
2023/02/02 12:20:01;;;;;;;3.23;1.20;;;;;;;;;;5112556;28;20512;-61
2023/02/02 12:22:40;;;;;;;5.33;1.40;;;;;;;;;;5116194;28;20820;-60
2023/02/02 12:25:18;;;;;;;6.30;1.40;;;;;;;;;;5115668;28;21045;-61
2023/02/02 12:27:53;;;;;;;6.40;1.60;;;;;;;;;;5118676;27;20445;-60
2023/02/02 12:30:27;;;;;;;3.20;1.47;;;;;;;;;;5126212;27;20444;-61
2023/02/02 12:33:02;;;;;;;6.70;2.20;;;;;;;;;;5124342;27;20441;-61
2023/02/02 12:35:34;;;;;;;5.03;1.67;;;;;;;;;;5124223;27;20949;-61
2023/02/02 12:38:08;;;;;;;3.83;1.63;;;;;;;;;;5130379;27;20877;-60
2023/02/02 12:40:44;;;;;;;7.60;1.67;;;;;;;;;;5131813;27;20843;-62
2023/02/02 12:43:15;;;;;;;4.33;1.50;;;;;;;;;;5136570;27;20454;-62
2023/02/02 12:45:50;;;;;;;5.73;2.60;;;;;;;;;;5136338;27;20475;-61
2023/02/02 12:48:23;;;;;;;7.70;2.20;;;;;;;;;;5136552;27;20530;-60
2023/02/02 12:50:57;;;;;;;3.47;1.50;;;;;;;;;;5136359;27;20451;-60
2023/02/02 12:53:31;;;;;;;9.10;2.20;;;;;;;;;;5136436;27;20539;-60
2023/02/02 12:56:00;;;;;;;5.40;2.47;;;;;;;;;;5136198;27;20448;-60
2023/02/02 12:58:30;;;;;;;4.13;1.97;;;;;;;;;;5136438;27;20452;-61
2023/02/02 13:01:12;;;;;;;11.47;1.73;;;;;;;;;;5136230;27;20484;-60
2023/02/02 13:03:45;;;;;;;4.17;1.77;;;;;;;;;;5136246;27;20452;-61
2023/02/02 13:06:26;;;;;;;7.50;1.77;;;;;;;;;;5136250;27;20543;-61
2023/02/02 13:08:56;;;;;;;6.03;1.27;;;;;;;;;;5136258;27;20445;-60
2023/02/02 13:11:31;;;;;;;2.90;1.10;;;;;;;;;;5136179;27;20472;-60
2023/02/02 13:14:00;;;;;;;18.80;11.17;;;;;;;;;;5135978;27;20532;-60
2023/02/02 13:16:30;;;;;;;5.50;3.80;;;;;;;;;;5135970;27;20445;-60
2023/02/02 13:19:01;;;;;;;12.50;6.10;;;;;;;;;;5135817;27;20488;-60
2023/02/02 13:21:30;;;;;;;5.73;1.40;;;;;;;;;;5135883;27;20480;-60
2023/02/02 13:23:59;;;;;;;3.50;1.60;;;;;;;;;;5135398;27;20449;-60
2023/02/02 13:26:28;;;;;;;3.90;1.63;;;;;;;;;;5135576;27;20445;-60
2023/02/02 13:28:57;;;;;;;7.30;1.47;;;;;;;;;;5135643;27;20449;-60
2023/02/02 13:31:28;;;;;;;5.90;1.43;;;;;;;;;;5135559;27;20460;-60
2023/02/02 13:34:01;;;;;;;5.80;2.13;;;;;;;;;;5134647;27;20539;-60
2023/02/02 13:36:34;;;;;;;5.13;1.83;;;;;;;;;;5135558;27;20454;-60
2023/02/02 13:39:02;;;;;;;2.73;1.27;;;;;;;;;;5135650;27;20481;-60
2023/02/02 13:41:30;;;;;;;4.07;1.57;;;;;;;;;;5135362;27;20483;-60
2023/02/02 13:44:00;;;;;;;3.73;1.27;;;;;;;;;;5135213;27;20451;-60
2023/02/02 13:46:32;;;;;;;2.60;1.20;;;;;;;;;;5121645;27;21056;-60
2023/02/02 13:49:05;;;;;;;11.40;7.13;;;;;;;;;;5114101;28;20450;-60
2023/02/02 13:51:42;;;;;;;6.00;1.70;;;;;;;;;;5114321;28;20460;-60
2023/02/02 13:54:18;;;;;;;7.37;1.97;;;;;;;;;;5114543;28;20883;-60
2023/02/02 13:56:51;;;;;;;3.73;1.30;;;;;;;;;;5113523;28;20448;-60
2023/02/02 13:59:26;;;;;;;3.33;1.30;;;;;;;;;;5114596;28;20539;-60
2023/02/02 14:01:55;;;;;;;3.57;1.50;;;;;;;;;;5114524;28;20502;-60
2023/02/02 14:04:25;;;;;;;2.60;1.53;;;;;;;;;;5114198;28;20474;-60
2023/02/02 14:06:56;;;;;;;3.37;1.57;;;;;;;;;;5114131;28;20956;-60
2023/02/02 14:09:25;;;;;;;4.10;1.70;;;;;;;;;;5114438;28;20446;-60
2023/02/02 14:11:55;;;;;;;3.87;1.90;;;;;;;;;;5114382;28;20542;-60
2023/02/02 14:14:33;;;;;;;5.60;2.37;;;;;;;;;;5113976;28;20456;-60
2023/02/02 14:17:01;;;;;;;5.07;2.37;;;;;;;;;;5114193;28;20442;-60
2023/02/02 14:19:46;;;;;;;6.60;3.37;;;;;;;;;;5113856;28;20452;-60
2023/02/02 14:22:34;;;;;;;2.80;1.33;;;;;;;;;;5114360;28;20828;-60
2023/02/02 14:25:02;;;;;;;1.90;0.80;;;;;;;;;;5107511;28;20797;-60
2023/02/02 14:27:56;;;;;;;3.40;2.50;;;;;;;;;;5113570;28;20195;-60
2023/02/02 14:30:29;;;;;;;2.70;1.40;;;;;;;;;;5113662;28;20496;-60
2023/02/02 14:33:11;;;;;;;3.73;1.90;;;;;;;;;;5113557;28;20445;-60
2023/02/02 14:35:56;;;;;;;2.07;1.87;;;;;;;;;;5113310;28;20993;-60
2023/02/02 14:38:30;;;;;;;2.37;1.17;;;;;;;;;;5113647;28;20452;-60
2023/02/02 14:41:01;;;;;;;2.75;1.30;;;;;;;;;;5113454;28;20484;-60
2023/02/02 14:43:48;;;;;;;4.18;2.20;;;;;;;;;;5113296;28;20198;-60
2023/02/02 14:46:23;;;;;;;1.55;1.30;;;;;;;;;;5113169;28;20696;-60
2023/02/02 14:49:07;;;;;;;2.43;1.43;;;;;;;;;;5113489;28;20286;-60
2023/02/02 14:51:44;;;;;;;3.00;1.80;;;;;;;;;;5113238;28;20513;-60
2023/02/02 14:54:18;;;;;;;2.67;0.88;;;;;;;;;;5113358;28;20479;-60
2023/02/02 14:56:48;;;;;;;1.20;1.10;;;;;;;;;;5113192;28;20527;-61
2023/02/02 14:59:18;;;;;;;4.53;1.20;;;;;;;;;;5113415;28;20466;-60
2023/02/02 15:01:53;;;;;;;2.37;0.90;;;;;;;;;;5113234;28;20819;-61
2023/02/02 15:04:25;;;;;;;1.67;0.90;;;;;;;;;;5113191;28;20453;-60
2023/02/02 15:06:52;;;;;;;1.50;1.23;;;;;;;;;;5113204;28;20455;-60